Latest Weather Observations for Low Isles

IDQ60801

Issued at 10:32 am EST Wednesday 10 February 2016 (issued every 30 minutes, with the page automatically refreshed every 10 minutes)

About weather observations | Map of weather stations | Latest weather observations for QLD | Other Formats
Station Details ID: 031037 Name: LOW ISLES LIGHTHOUSE Lat: -16.38 Lon: 145.56 Height: 2.9 m
Data from the previous 72 hours. | See also: Recent months at Low Isles
Date/Time
EST
Temp
°C
App
Temp
°C
Dew
Point
Rel
Hum
%
Delta-T
°C
Wind Press
QNH
hPa
Press
MSL
hPa
Rain
since 9 am
mm
Dir
 
Spd
km/h
Gust
km/h
Spd
kts
Gust
kts
10/10:30am 29.2 30.4 23.2 70 4.1 S 22 28 12 15 1008.6 - 0.0
10/10:00am 29.5 30.7 23.2 69 4.3 SSE 22 28 12 15 1008.8 - 0.0
10/09:30am 29.0 30.6 23.9 74 3.5 S 22 26 12 14 1008.9 - 0.0
10/09:00am 28.7 30.1 23.6 74 3.5 S 22 28 12 15 1009.0 1008.9 0.4
10/08:30am 28.6 30.4 24.2 77 3.1 S 22 26 12 14 1008.8 - 0.4
10/08:00am 28.4 30.0 23.8 76 3.2 SSE 22 26 12 14 1008.3 - 0.4
10/07:30am 28.0 28.8 23.8 78 2.9 S 26 28 14 15 1007.9 - 0.4
10/07:00am 27.8 28.0 23.4 77 3.0 S 28 30 15 16 1007.6 - 0.4
10/06:30am 27.9 27.4 23.9 79 2.8 SSE 33 39 18 21 1007.3 - 0.4
10/06:00am 27.9 28.0 23.9 79 2.8 S 30 33 16 18 1006.9 1006.8 0.4
10/05:30am 28.0 29.1 23.6 77 3.0 SSE 24 30 13 16 1006.6 - 0.4
10/05:00am 27.9 28.8 23.3 76 3.1 S 24 30 13 16 1006.5 - 0.4
10/04:30am 27.9 28.8 23.3 76 3.1 S 24 28 13 15 1006.3 - 0.4
10/04:00am 28.0 29.1 23.6 77 3.0 S 24 28 13 15 1006.2 - 0.4
10/03:30am 27.9 28.6 23.7 78 2.9 S 26 32 14 17 1006.5 - 0.4
10/03:00am 28.0 28.7 23.6 77 3.0 S 26 30 14 16 1006.4 1006.3 0.4
10/02:30am 28.2 29.5 24.0 78 2.9 S 24 28 13 15 1006.5 - 0.4
10/02:00am 28.3 29.8 24.3 79 2.8 S 24 28 13 15 1006.7 - 0.4
10/01:30am 28.3 29.2 23.9 77 3.0 S 26 30 14 16 1006.8 - 0.4
10/01:00am 28.1 28.6 23.9 78 2.9 S 28 32 15 17 1007.5 - 0.4
10/12:30am 28.4 30.1 24.6 80 2.6 S 24 32 13 17 1008.1 - 0.4
10/12:00am 28.4 29.0 24.2 78 2.9 S 28 33 15 18 1008.3 1008.2 0.4
 
Date/Time
EST
Temp
°C
App
Temp
°C
Dew
Point
Rel
Hum
%
Delta-T
°C
Wind Press
QNH
hPa
Press
MSL
hPa
Rain
since 9 am
mm
Dir
 
Spd
km/h
Gust
km/h
Spd
kts
Gust
kts
09/11:30pm 28.7 30.5 24.9 80 2.7 S 24 30 13 16 1008.7 - 0.4
09/11:00pm 28.9 30.2 25.3 81 2.5 S 28 32 15 17 1008.8 - 0.4
09/10:30pm 28.8 29.3 25.2 81 2.5 SSE 32 35 17 19 1009.1 - 0.4
09/10:00pm 29.0 29.1 25.4 81 2.5 SSE 35 41 19 22 1009.0 - 0.4
09/09:30pm 29.0 29.1 25.4 81 2.5 SSE 35 41 19 22 1008.7 - 0.4
09/09:00pm 28.8 28.4 25.2 81 2.5 SE 37 41 20 22 1008.3 1008.2 0.4
09/08:30pm 28.8 28.5 25.4 82 2.4 SE 37 44 20 24 1008.2 - 0.4
09/08:00pm 28.8 28.9 25.4 82 2.4 SE 35 41 19 22 1008.1 - 0.4
09/07:30pm 28.8 28.7 25.2 81 2.5 SE 35 41 19 22 1007.8 - 0.4
09/07:00pm 28.8 28.4 25.2 81 2.5 SE 37 43 20 23 1007.2 - 0.4
09/06:30pm 28.9 29.4 25.5 82 2.4 SE 33 41 18 22 1006.8 - 0.4
09/06:00pm 28.6 29.9 25.2 82 2.4 SSE 28 32 15 17 1006.6 1006.5 0.4
09/05:30pm 28.8 29.3 25.2 81 2.5 SSE 32 39 17 21 1006.3 - 0.4
09/05:00pm 28.7 29.1 25.1 81 2.5 SSE 32 35 17 19 1006.0 - 0.4
09/04:30pm 28.7 29.1 25.1 81 2.5 SSE 32 37 17 20 1006.0 - 0.4
09/04:00pm 28.8 29.6 25.6 83 2.3 SSE 32 37 17 20 1006.2 - 0.4
09/03:30pm 28.4 28.0 25.2 83 2.2 SSE 37 43 20 23 1006.2 - 0.4
09/03:00pm 28.6 28.3 25.4 83 2.3 SE 37 43 20 23 1006.8 1006.7 0.4
09/02:30pm 28.6 29.0 25.4 83 2.3 SE 33 41 18 22 1007.0 - 0.2
09/02:00pm 28.0 27.8 25.0 84 2.1 SE 35 41 19 22 1007.3 - 0.2
09/01:30pm 27.8 27.4 25.2 86 1.8 SE 37 44 20 24 1007.7 - 0.2
09/01:00pm 29.0 27.2 25.2 80 2.7 SE 44 56 24 30 1007.6 - 0.2
09/12:30pm 29.6 27.8 24.9 76 3.3 SE 43 48 23 26 1008.0 - 0.2
09/12:00pm 31.2 32.1 25.3 71 4.2 SE 30 33 16 18 1008.2 1008.1 0.2
09/11:30am 30.8 32.3 24.9 71 4.1 SE 26 33 14 18 1008.4 - 0.2
09/11:00am 30.4 31.4 24.1 69 4.4 SSE 26 30 14 16 1008.8 - 0.2
09/10:30am 30.2 31.4 23.9 69 4.4 SSE 24 28 13 15 1009.2 - 0.2
09/10:00am 29.9 31.4 24.3 72 3.9 SSE 24 28 13 15 1009.3 - 0.0
09/09:30am 29.5 30.8 24.1 72 3.7 SSE 24 28 13 15 1009.4 - 0.0
09/09:00am 28.9 30.6 24.0 75 3.4 SSE 22 26 12 14 1009.4 1009.3 10.4
09/08:30am 28.3 30.6 23.4 75 3.4 S 17 24 9 13 1008.9 - 10.4
09/08:00am 28.1 30.9 24.3 80 2.6 S 17 20 9 11 1008.5 - 10.4
09/07:30am 27.9 30.0 24.1 80 2.6 S 20 26 11 14 1008.2 - 10.4
09/07:00am 27.8 27.9 24.0 80 2.6 SSE 30 32 16 17 1008.1 - 10.4
09/06:30am 27.5 27.9 23.7 80 2.6 SSE 28 33 15 18 1007.8 - 10.4
09/06:00am 27.3 27.7 23.7 81 2.5 S 28 33 15 18 1007.7 1007.6 10.4
09/05:30am 27.4 27.5 24.0 82 2.3 SSE 30 35 16 19 1007.1 - 10.4
09/05:00am 26.7 26.5 23.4 82 2.3 SSE 30 33 16 18 1007.1 - 10.4
09/04:30am 26.8 26.9 24.5 87 1.6 SSE 32 37 17 20 1007.1 - 10.4
09/04:00am 26.6 24.5 24.4 88 1.5 SSE 43 50 23 27 1006.8 - 10.4
09/03:30am 26.7 23.3 24.4 87 1.6 SE 50 61 27 33 1007.3 - 10.4
09/03:21am 26.7 23.0 24.0 85 1.9 SE 50 61 27 33 1007.3 - 10.4
09/03:00am 26.9 26.5 24.7 88 1.5 SE 35 43 19 23 1007.3 1007.2 10.4
09/02:30am 26.8 28.4 25.2 91 1.1 SE 26 32 14 17 1007.3 - 10.4
09/02:00am 28.2 28.3 24.8 82 2.4 SSE 33 39 18 21 1007.6 - 0.2
09/01:59am 28.5 28.7 25.1 82 2.4 SSE 33 39 18 21 1007.6 - 0.0
09/01:30am 29.2 33.6 26.2 84 2.1 S 15 19 8 10 1007.7 - 0.0
09/01:00am 29.1 32.4 25.7 82 2.4 SSE 19 20 10 11 1007.8 - 0.0
09/12:30am 29.1 32.5 25.9 83 2.3 SSE 19 20 10 11 1007.9 - 0.0
09/12:00am 29.4 32.8 26.2 83 2.3 SSE 20 22 11 12 1008.6 1008.5 0.0
 
Date/Time
EST
Temp
°C
App
Temp
°C
Dew
Point
Rel
Hum
%
Delta-T
°C
Wind Press
QNH
hPa
Press
MSL
hPa
Rain
since 9 am
mm
Dir
 
Spd
km/h
Gust
km/h
Spd
kts
Gust
kts
08/11:30pm 29.5 33.2 26.3 83 2.3 SE 19 20 10 11 1009.0 - 0.0
08/11:00pm 29.5 32.9 26.1 82 2.4 SE 20 24 11 13 1009.3 - 0.0
08/10:30pm 29.6 32.4 26.4 83 2.3 SE 24 28 13 15 1009.4 - 0.0
08/10:00pm 29.5 31.7 26.1 82 2.4 SE 26 30 14 16 1008.8 - 0.0
08/09:30pm 29.6 31.8 26.6 84 2.1 SE 28 32 15 17 1008.4 - 0.0
08/09:00pm 29.7 31.2 26.7 84 2.2 SE 32 35 17 19 1008.1 1008.0 0.0
08/08:30pm 29.7 31.4 26.5 83 2.3 SE 30 33 16 18 1008.0 - 0.0
08/08:00pm 29.9 32.3 26.9 84 2.2 SE 28 33 15 18 1007.9 - 0.0
08/07:30pm 30.2 33.4 27.0 83 2.3 SE 24 28 13 15 1007.9 - 0.0
08/07:00pm 30.2 33.5 26.6 81 2.6 SE 22 26 12 14 1007.5 - 0.0
08/06:30pm 30.5 34.2 27.1 82 2.5 SE 22 26 12 14 1006.9 - 0.0
08/06:00pm 30.8 34.5 26.3 77 3.2 SE 19 22 10 12 1007.0 1006.9 0.0
08/05:30pm 31.6 35.3 25.7 71 4.2 ESE 17 20 9 11 1006.9 - 0.0
08/05:00pm 32.5 36.1 25.6 67 4.9 SE 17 20 9 11 1006.5 - 0.0
08/04:30pm 33.3 37.0 25.8 65 5.4 ESE 17 22 9 12 1006.6 - 0.0
08/04:00pm 33.7 37.0 25.7 63 5.7 ESE 19 22 10 12 1006.4 - 0.0
08/03:30pm 34.9 38.8 26.0 60 6.4 E 17 24 9 13 1006.0 - 0.0
08/03:00pm 35.0 39.3 26.6 61 6.1 E 17 26 9 14 1006.0 1005.9 0.0
08/02:30pm 34.5 37.5 26.1 61 6.0 ESE 22 30 12 16 1005.9 - 0.0
08/02:00pm 34.9 38.9 26.8 63 5.9 ESE 19 26 10 14 1006.7 - 0.0
08/01:30pm 34.5 37.1 26.1 61 6.0 ESE 24 30 13 16 1006.8 - 0.0
08/01:00pm 34.1 38.1 27.1 67 5.1 ESE 20 28 11 15 1007.4 - 0.0
08/12:30pm 33.8 37.3 26.8 67 5.1 ESE 22 26 12 14 1007.7 - 0.0
08/12:00pm 33.4 37.1 27.2 70 4.5 ESE 22 26 12 14 1008.1 1008.0 0.0
08/11:30am 32.8 37.3 27.5 73 3.9 SE 19 22 10 12 1008.7 - 0.0
08/11:00am 33.0 38.5 26.8 70 4.5 SE 11 15 6 8 1009.1 - 0.0
08/10:30am 31.6 36.5 25.9 72 4.1 ESE 11 15 6 8 1009.3 - 0.0
08/10:00am 30.2 34.8 25.9 78 3.1 ESE 13 17 7 9 1009.2 - 0.0
08/09:30am 30.0 35.2 26.8 83 2.3 S 13 20 7 11 1009.3 - 0.0
08/09:00am 30.4 35.9 26.1 78 3.1 S 9 9 5 5 1009.3 1009.2 0.0
08/08:30am 29.8 35.4 25.8 79 2.8 SSW 7 9 4 5 1009.2 - 0.0
08/08:00am 30.0 36.1 27.0 84 2.2 W 9 13 5 7 1008.9 - 0.0
08/07:30am 29.4 34.3 25.8 81 2.6 W 11 13 6 7 1008.7 - 0.0
08/07:00am 29.1 34.2 25.5 81 2.5 W 9 11 5 6 1008.0 - 0.0
08/06:30am 29.4 34.0 26.0 82 2.4 W 13 15 7 8 1007.7 - 0.0
08/06:00am 29.5 34.8 26.5 84 2.1 WSW 11 11 6 6 1007.2 1007.1 0.0
08/05:30am 28.8 34.2 26.0 85 2.0 W 9 11 5 6 1006.8 - 0.0
08/05:00am 29.3 35.7 26.9 87 1.7 SSW 7 9 4 5 1006.7 - 0.0
08/04:30am 28.9 36.1 26.1 85 2.0 CALM 0 0 0 0 1006.7 - 0.0
08/04:00am 29.0 34.8 26.0 84 2.1 SSE 7 9 4 5 1006.8 - 0.0
08/03:30am 29.1 34.2 26.1 84 2.1 S 11 13 6 7 1006.8 - 0.0
08/03:00am 28.9 33.5 25.9 84 2.1 SSW 13 17 7 9 1006.9 1006.8 0.0
08/02:30am 29.2 34.2 26.6 86 1.9 SW 13 15 7 8 1007.2 - 0.0
08/02:00am 29.2 34.2 26.6 86 1.9 WSW 13 15 7 8 1007.3 - 0.0
08/01:30am 29.5 35.0 26.7 85 2.0 WSW 11 13 6 7 1007.5 - 0.0
08/01:00am 29.7 35.7 26.9 85 2.0 SW 9 11 5 6 1007.7 - 0.0
08/12:30am 29.6 35.7 27.0 86 1.9 SW 9 11 5 6 1007.9 - 0.0
08/12:00am 29.9 36.5 27.7 88 1.6 SW 9 11 5 6 1007.9 1007.8 0.0
 
Date/Time
EST
Temp
°C
App
Temp
°C
Dew
Point
Rel
Hum
%
Delta-T
°C
Wind Press
QNH
hPa
Press
MSL
hPa
Rain
since 9 am
mm
Dir
 
Spd
km/h
Gust
km/h
Spd
kts
Gust
kts
07/11:30pm 30.0 37.7 27.4 86 1.9 N 2 6 1 3 1008.0 - 0.0
07/11:00pm 30.1 37.2 27.7 87 1.7 N 6 7 3 4 1008.1 - 0.0
07/10:30pm 30.0 36.6 27.8 88 1.6 N 9 11 5 6 1008.3 - 0.0
07/10:00pm 30.0 36.9 27.6 87 1.7 N 7 9 4 5 1008.1 - 0.0
07/09:30pm 30.0 37.7 27.4 86 1.9 NNE 2 9 1 5 1008.1 - 0.0
07/09:00pm 30.1 37.8 26.9 83 2.3 CALM 0 0 0 0 1007.9 1007.8 0.0
07/08:30pm 30.1 37.0 26.9 83 2.3 NNE 4 7 2 4 1007.2 - 0.0
07/08:00pm 30.4 36.6 27.2 83 2.3 N 9 11 5 6 1007.0 - 0.0
07/07:30pm 30.8 37.4 27.2 81 2.6 NNE 7 11 4 6 1006.6 - 0.0
07/07:00pm 31.2 37.2 26.9 78 3.1 NNE 9 11 5 6 1006.3 - 0.0
07/06:30pm 31.9 37.5 26.9 75 3.6 NNE 11 13 6 7 1006.0 - 0.0
07/06:00pm 32.6 38.2 26.9 72 4.1 NE 11 13 6 7 1005.7 1005.6 0.0
07/05:30pm 33.2 38.3 26.7 68 4.7 ENE 13 15 7 8 1005.0 - 0.0
07/05:00pm 33.8 38.0 26.5 65 5.3 NE 17 19 9 10 1004.7 - 0.0
07/04:30pm 35.3 40.9 27.4 63 5.8 NE 13 13 7 7 1004.1 - 0.0
07/04:00pm 35.4 42.0 27.3 63 5.9 NE 7 11 4 6 1004.1 - 0.0
07/03:30pm 36.0 41.9 27.3 61 6.3 NNE 11 13 6 7 1003.9 - 0.0
07/03:00pm 35.0 38.7 27.2 64 5.7 N 22 24 12 13 1004.1 1004.0 0.0
07/02:30pm 35.8 39.8 27.1 61 6.3 NNE 20 22 11 12 1004.2 - 0.0
07/02:00pm 36.9 40.7 27.3 58 7.0 NNE 22 24 12 13 1004.6 - 0.0
07/01:30pm 35.6 39.3 27.7 63 5.8 NE 24 26 13 14 1005.0 - 0.0
07/01:00pm 35.6 39.7 27.2 62 6.1 NE 20 22 11 12 1005.4 - 0.0
07/12:30pm 36.3 40.1 26.4 56 7.2 NE 19 20 10 11 1005.9 - 0.0
07/12:00pm 36.4 40.6 25.9 54 7.6 NNE 15 17 8 9 1006.2 1006.1 0.0
07/11:30am 35.5 40.3 25.7 57 7.0 NNE 11 13 6 7 1006.3 - 0.0
07/11:00am 33.7 40.0 26.5 66 5.2 NNW 6 7 3 4 1006.5 - 0.0

Other Formats:

Comma delimited format used in spreadsheet applications
http://www.bom.gov.au/fwo/IDQ60801/IDQ60801.94285.axf

JavaScript Object Notation format (JSON) in row-major order
http://www.bom.gov.au/fwo/IDQ60801/IDQ60801.94285.json